sensor_id;sensor_type;location;lat;lon;timestamp;P1;durP1;ratioP1;P2;durP2;ratioP2
22429;SDS011;11382;48.086;11.632;2023-12-28T00:00:39;1.90;;;1.45;;
22429;SDS011;11382;48.086;11.632;2023-12-28T00:03:07;3.50;;;1.88;;
22429;SDS011;11382;48.086;11.632;2023-12-28T00:05:35;3.92;;;1.90;;
22429;SDS011;11382;48.086;11.632;2023-12-28T00:08:04;3.13;;;1.80;;
22429;SDS011;11382;48.086;11.632;2023-12-28T00:10:33;2.35;;;1.80;;
22429;SDS011;11382;48.086;11.632;2023-12-28T00:13:03;7.93;;;3.33;;
22429;SDS011;11382;48.086;11.632;2023-12-28T00:15:31;2.15;;;1.70;;
22429;SDS011;11382;48.086;11.632;2023-12-28T00:17:59;2.63;;;1.67;;
22429;SDS011;11382;48.086;11.632;2023-12-28T00:20:28;3.63;;;2.00;;
22429;SDS011;11382;48.086;11.632;2023-12-28T00:22:56;2.38;;;1.38;;
22429;SDS011;11382;48.086;11.632;2023-12-28T00:25:24;2.75;;;1.67;;
22429;SDS011;11382;48.086;11.632;2023-12-28T00:27:55;2.35;;;1.70;;
22429;SDS011;11382;48.086;11.632;2023-12-28T00:30:23;1.67;;;1.20;;
22429;SDS011;11382;48.086;11.632;2023-12-28T00:32:52;1.85;;;1.42;;
22429;SDS011;11382;48.086;11.632;2023-12-28T00:35:20;1.83;;;1.35;;
22429;SDS011;11382;48.086;11.632;2023-12-28T00:37:48;3.05;;;1.88;;
22429;SDS011;11382;48.086;11.632;2023-12-28T00:40:16;2.28;;;1.58;;
22429;SDS011;11382;48.086;11.632;2023-12-28T00:42:44;2.17;;;1.50;;
22429;SDS011;11382;48.086;11.632;2023-12-28T00:45:13;2.30;;;1.60;;
22429;SDS011;11382;48.086;11.632;2023-12-28T00:47:41;3.45;;;1.67;;
22429;SDS011;11382;48.086;11.632;2023-12-28T00:50:10;1.45;;;1.13;;
22429;SDS011;11382;48.086;11.632;2023-12-28T00:52:41;1.20;;;1.02;;
22429;SDS011;11382;48.086;11.632;2023-12-28T00:55:10;2.05;;;1.17;;
22429;SDS011;11382;48.086;11.632;2023-12-28T00:57:38;1.73;;;1.23;;
22429;SDS011;11382;48.086;11.632;2023-12-28T01:00:06;2.40;;;1.42;;
22429;SDS011;11382;48.086;11.632;2023-12-28T01:02:37;1.15;;;0.90;;
22429;SDS011;11382;48.086;11.632;2023-12-28T01:05:05;3.75;;;1.30;;
22429;SDS011;11382;48.086;11.632;2023-12-28T01:07:33;1.42;;;1.08;;
22429;SDS011;11382;48.086;11.632;2023-12-28T01:10:01;1.55;;;1.20;;
22429;SDS011;11382;48.086;11.632;2023-12-28T01:12:30;1.25;;;1.00;;
22429;SDS011;11382;48.086;11.632;2023-12-28T01:14:58;1.83;;;1.15;;
22429;SDS011;11382;48.086;11.632;2023-12-28T01:17:26;1.63;;;1.13;;
22429;SDS011;11382;48.086;11.632;2023-12-28T01:19:56;2.40;;;1.08;;
22429;SDS011;11382;48.086;11.632;2023-12-28T01:22:24;1.52;;;0.85;;
22429;SDS011;11382;48.086;11.632;2023-12-28T01:24:52;2.85;;;1.60;;
22429;SDS011;11382;48.086;11.632;2023-12-28T01:27:23;2.03;;;1.27;;
22429;SDS011;11382;48.086;11.632;2023-12-28T01:29:51;2.13;;;1.20;;
22429;SDS011;11382;48.086;11.632;2023-12-28T01:32:19;1.55;;;1.15;;
22429;SDS011;11382;48.086;11.632;2023-12-28T01:34:47;1.83;;;1.30;;
22429;SDS011;11382;48.086;11.632;2023-12-28T01:37:18;1.45;;;1.30;;
22429;SDS011;11382;48.086;11.632;2023-12-28T01:39:46;1.55;;;1.25;;
22429;SDS011;11382;48.086;11.632;2023-12-28T01:42:14;1.52;;;1.20;;
22429;SDS011;11382;48.086;11.632;2023-12-28T01:44:42;1.77;;;1.13;;
22429;SDS011;11382;48.086;11.632;2023-12-28T01:47:11;3.22;;;1.40;;
22429;SDS011;11382;48.086;11.632;2023-12-28T01:49:39;3.28;;;1.80;;
22429;SDS011;11382;48.086;11.632;2023-12-28T01:52:08;3.13;;;1.67;;
22429;SDS011;11382;48.086;11.632;2023-12-28T01:54:39;1.55;;;1.30;;
22429;SDS011;11382;48.086;11.632;2023-12-28T01:57:07;2.28;;;1.40;;
22429;SDS011;11382;48.086;11.632;2023-12-28T01:59:36;2.35;;;1.58;;
22429;SDS011;11382;48.086;11.632;2023-12-28T02:02:05;2.53;;;1.67;;
22429;SDS011;11382;48.086;11.632;2023-12-28T02:04:33;3.33;;;1.38;;
22429;SDS011;11382;48.086;11.632;2023-12-28T02:07:02;2.10;;;1.33;;
22429;SDS011;11382;48.086;11.632;2023-12-28T02:09:30;2.22;;;1.60;;
22429;SDS011;11382;48.086;11.632;2023-12-28T02:12:01;3.47;;;2.05;;
22429;SDS011;11382;48.086;11.632;2023-12-28T02:14:31;2.20;;;1.45;;
22429;SDS011;11382;48.086;11.632;2023-12-28T02:17:00;2.08;;;1.60;;
22429;SDS011;11382;48.086;11.632;2023-12-28T02:19:39;2.55;;;1.70;;
22429;SDS011;11382;48.086;11.632;2023-12-28T02:22:11;2.13;;;1.50;;
22429;SDS011;11382;48.086;11.632;2023-12-28T02:27:39;3.65;;;1.70;;
22429;SDS011;11382;48.086;11.632;2023-12-28T02:30:09;3.28;;;1.60;;
22429;SDS011;11382;48.086;11.632;2023-12-28T02:32:39;1.73;;;1.30;;
22429;SDS011;11382;48.086;11.632;2023-12-28T02:35:17;2.15;;;1.50;;
22429;SDS011;11382;48.086;11.632;2023-12-28T02:37:49;2.10;;;1.60;;
22429;SDS011;11382;48.086;11.632;2023-12-28T02:40:21;2.85;;;1.40;;
22429;SDS011;11382;48.086;11.632;2023-12-28T02:42:51;2.30;;;1.80;;
22429;SDS011;11382;48.086;11.632;2023-12-28T02:45:19;2.00;;;1.40;;
22429;SDS011;11382;48.086;11.632;2023-12-28T02:47:47;1.50;;;1.30;;
22429;SDS011;11382;48.086;11.632;2023-12-28T02:50:15;2.13;;;1.48;;
22429;SDS011;11382;48.086;11.632;2023-12-28T02:52:44;2.20;;;1.45;;
22429;SDS011;11382;48.086;11.632;2023-12-28T02:55:12;2.00;;;1.60;;
22429;SDS011;11382;48.086;11.632;2023-12-28T02:57:42;2.22;;;1.55;;
22429;SDS011;11382;48.086;11.632;2023-12-28T03:00:11;2.20;;;1.58;;
22429;SDS011;11382;48.086;11.632;2023-12-28T03:02:40;3.58;;;1.40;;
22429;SDS011;11382;48.086;11.632;2023-12-28T03:05:08;3.47;;;1.45;;
22429;SDS011;11382;48.086;11.632;2023-12-28T03:07:37;1.67;;;1.40;;
22429;SDS011;11382;48.086;11.632;2023-12-28T03:10:07;2.20;;;1.52;;
22429;SDS011;11382;48.086;11.632;2023-12-28T03:12:39;1.45;;;1.20;;
22429;SDS011;11382;48.086;11.632;2023-12-28T03:15:09;1.77;;;1.17;;
22429;SDS011;11382;48.086;11.632;2023-12-28T03:17:37;2.78;;;1.10;;
22429;SDS011;11382;48.086;11.632;2023-12-28T03:20:06;3.15;;;1.30;;
22429;SDS011;11382;48.086;11.632;2023-12-28T03:22:34;1.75;;;1.20;;
22429;SDS011;11382;48.086;11.632;2023-12-28T03:25:03;2.47;;;1.00;;
22429;SDS011;11382;48.086;11.632;2023-12-28T03:27:31;1.63;;;1.00;;
22429;SDS011;11382;48.086;11.632;2023-12-28T03:29:59;1.65;;;0.88;;
22429;SDS011;11382;48.086;11.632;2023-12-28T03:32:29;1.48;;;1.00;;
22429;SDS011;11382;48.086;11.632;2023-12-28T03:34:57;1.42;;;1.00;;
22429;SDS011;11382;48.086;11.632;2023-12-28T03:37:25;0.80;;;0.80;;
22429;SDS011;11382;48.086;11.632;2023-12-28T03:39:54;0.95;;;0.70;;
22429;SDS011;11382;48.086;11.632;2023-12-28T03:42:22;0.70;;;0.60;;
22429;SDS011;11382;48.086;11.632;2023-12-28T03:44:50;2.95;;;0.80;;
22429;SDS011;11382;48.086;11.632;2023-12-28T03:47:18;0.60;;;0.60;;
22429;SDS011;11382;48.086;11.632;2023-12-28T03:49:47;1.00;;;0.60;;
22429;SDS011;11382;48.086;11.632;2023-12-28T03:52:16;0.65;;;0.60;;
22429;SDS011;11382;48.086;11.632;2023-12-28T03:54:44;1.42;;;0.85;;
22429;SDS011;11382;48.086;11.632;2023-12-28T03:57:12;1.20;;;0.75;;
22429;SDS011;11382;48.086;11.632;2023-12-28T03:59:40;0.95;;;0.70;;
22429;SDS011;11382;48.086;11.632;2023-12-28T04:02:08;1.10;;;0.80;;
22429;SDS011;11382;48.086;11.632;2023-12-28T04:04:36;1.23;;;0.77;;
22429;SDS011;11382;48.086;11.632;2023-12-28T04:07:06;0.90;;;0.60;;
22429;SDS011;11382;48.086;11.632;2023-12-28T04:09:34;1.08;;;0.60;;
22429;SDS011;11382;48.086;11.632;2023-12-28T04:12:03;0.98;;;0.77;;
22429;SDS011;11382;48.086;11.632;2023-12-28T04:14:31;1.08;;;0.52;;
22429;SDS011;11382;48.086;11.632;2023-12-28T04:16:59;1.38;;;0.80;;
22429;SDS011;11382;48.086;11.632;2023-12-28T04:19:27;1.20;;;0.80;;
22429;SDS011;11382;48.086;11.632;2023-12-28T04:21:55;1.42;;;0.70;;
22429;SDS011;11382;48.086;11.632;2023-12-28T04:24:25;0.65;;;0.60;;
22429;SDS011;11382;48.086;11.632;2023-12-28T04:26:53;0.75;;;0.60;;
22429;SDS011;11382;48.086;11.632;2023-12-28T04:29:22;0.95;;;0.70;;
22429;SDS011;11382;48.086;11.632;2023-12-28T04:31:50;1.67;;;0.70;;
22429;SDS011;11382;48.086;11.632;2023-12-28T04:34:19;1.00;;;0.60;;
22429;SDS011;11382;48.086;11.632;2023-12-28T04:36:47;0.80;;;0.50;;
22429;SDS011;11382;48.086;11.632;2023-12-28T04:39:16;1.00;;;0.70;;
22429;SDS011;11382;48.086;11.632;2023-12-28T04:41:46;0.88;;;0.68;;
22429;SDS011;11382;48.086;11.632;2023-12-28T04:44:14;1.92;;;0.85;;
22429;SDS011;11382;48.086;11.632;2023-12-28T04:46:44;0.45;;;0.40;;
22429;SDS011;11382;48.086;11.632;2023-12-28T04:49:12;0.60;;;0.60;;
22429;SDS011;11382;48.086;11.632;2023-12-28T04:51:43;0.52;;;0.40;;
22429;SDS011;11382;48.086;11.632;2023-12-28T04:54:11;0.77;;;0.57;;
22429;SDS011;11382;48.086;11.632;2023-12-28T04:56:39;1.52;;;0.80;;
22429;SDS011;11382;48.086;11.632;2023-12-28T04:59:09;1.33;;;0.77;;
22429;SDS011;11382;48.086;11.632;2023-12-28T05:01:40;0.60;;;0.50;;
22429;SDS011;11382;48.086;11.632;2023-12-28T05:04:08;0.75;;;0.60;;
22429;SDS011;11382;48.086;11.632;2023-12-28T05:06:42;1.20;;;0.68;;
22429;SDS011;11382;48.086;11.632;2023-12-28T05:09:12;2.42;;;0.68;;
22429;SDS011;11382;48.086;11.632;2023-12-28T05:11:40;0.93;;;0.77;;
22429;SDS011;11382;48.086;11.632;2023-12-28T05:14:10;0.65;;;0.63;;
22429;SDS011;11382;48.086;11.632;2023-12-28T05:16:38;1.48;;;0.75;;
22429;SDS011;11382;48.086;11.632;2023-12-28T05:19:06;1.90;;;0.70;;
22429;SDS011;11382;48.086;11.632;2023-12-28T05:21:35;1.40;;;0.80;;
22429;SDS011;11382;48.086;11.632;2023-12-28T05:24:04;1.85;;;0.82;;
22429;SDS011;11382;48.086;11.632;2023-12-28T05:26:33;0.70;;;0.65;;
22429;SDS011;11382;48.086;11.632;2023-12-28T05:29:01;1.00;;;0.60;;
22429;SDS011;11382;48.086;11.632;2023-12-28T05:31:30;0.98;;;0.63;;
22429;SDS011;11382;48.086;11.632;2023-12-28T05:33:59;0.80;;;0.73;;
22429;SDS011;11382;48.086;11.632;2023-12-28T05:36:27;1.38;;;0.80;;
22429;SDS011;11382;48.086;11.632;2023-12-28T05:38:55;1.42;;;0.75;;
22429;SDS011;11382;48.086;11.632;2023-12-28T05:41:23;0.85;;;0.60;;
22429;SDS011;11382;48.086;11.632;2023-12-28T05:43:51;0.52;;;0.47;;
22429;SDS011;11382;48.086;11.632;2023-12-28T05:46:19;1.30;;;0.80;;
22429;SDS011;11382;48.086;11.632;2023-12-28T05:48:49;1.10;;;0.73;;
22429;SDS011;11382;48.086;11.632;2023-12-28T05:51:17;0.85;;;0.68;;
22429;SDS011;11382;48.086;11.632;2023-12-28T05:53:45;1.27;;;0.60;;
22429;SDS011;11382;48.086;11.632;2023-12-28T05:56:13;1.20;;;0.80;;
22429;SDS011;11382;48.086;11.632;2023-12-28T05:58:41;0.77;;;0.70;;
22429;SDS011;11382;48.086;11.632;2023-12-28T06:01:09;0.80;;;0.55;;
22429;SDS011;11382;48.086;11.632;2023-12-28T06:03:38;1.30;;;0.80;;
22429;SDS011;11382;48.086;11.632;2023-12-28T06:06:07;1.25;;;0.65;;
22429;SDS011;11382;48.086;11.632;2023-12-28T06:08:36;1.35;;;0.80;;
22429;SDS011;11382;48.086;11.632;2023-12-28T06:11:04;0.80;;;0.65;;
22429;SDS011;11382;48.086;11.632;2023-12-28T06:13:32;0.70;;;0.70;;
22429;SDS011;11382;48.086;11.632;2023-12-28T06:16:00;0.98;;;0.80;;
22429;SDS011;11382;48.086;11.632;2023-12-28T06:18:28;1.30;;;0.70;;
22429;SDS011;11382;48.086;11.632;2023-12-28T06:20:56;0.88;;;0.70;;
22429;SDS011;11382;48.086;11.632;2023-12-28T06:23:26;1.27;;;0.70;;
22429;SDS011;11382;48.086;11.632;2023-12-28T06:25:54;1.83;;;0.60;;
22429;SDS011;11382;48.086;11.632;2023-12-28T06:28:23;1.65;;;0.82;;
22429;SDS011;11382;48.086;11.632;2023-12-28T06:30:51;1.20;;;0.75;;
22429;SDS011;11382;48.086;11.632;2023-12-28T06:33:19;0.70;;;0.60;;
22429;SDS011;11382;48.086;11.632;2023-12-28T06:35:47;0.98;;;0.50;;
22429;SDS011;11382;48.086;11.632;2023-12-28T06:38:15;0.93;;;0.55;;
22429;SDS011;11382;48.086;11.632;2023-12-28T06:40:45;0.73;;;0.60;;
22429;SDS011;11382;48.086;11.632;2023-12-28T06:43:13;1.58;;;0.55;;
22429;SDS011;11382;48.086;11.632;2023-12-28T06:45:41;1.40;;;0.70;;
22429;SDS011;11382;48.086;11.632;2023-12-28T06:48:10;0.57;;;0.47;;
22429;SDS011;11382;48.086;11.632;2023-12-28T06:50:38;1.15;;;0.60;;
22429;SDS011;11382;48.086;11.632;2023-12-28T06:53:06;0.80;;;0.70;;
22429;SDS011;11382;48.086;11.632;2023-12-28T06:55:34;0.95;;;0.65;;
22429;SDS011;11382;48.086;11.632;2023-12-28T06:58:04;0.50;;;0.50;;
22429;SDS011;11382;48.086;11.632;2023-12-28T07:00:33;0.93;;;0.50;;
22429;SDS011;11382;48.086;11.632;2023-12-28T07:03:02;0.80;;;0.60;;
22429;SDS011;11382;48.086;11.632;2023-12-28T07:05:30;1.00;;;0.60;;
22429;SDS011;11382;48.086;11.632;2023-12-28T07:07:58;0.50;;;0.50;;
22429;SDS011;11382;48.086;11.632;2023-12-28T07:10:27;1.20;;;0.80;;
22429;SDS011;11382;48.086;11.632;2023-12-28T07:12:55;0.98;;;0.70;;
22429;SDS011;11382;48.086;11.632;2023-12-28T07:15:24;1.38;;;0.60;;
22429;SDS011;11382;48.086;11.632;2023-12-28T07:17:52;1.27;;;0.70;;
22429;SDS011;11382;48.086;11.632;2023-12-28T07:20:20;1.23;;;0.70;;
22429;SDS011;11382;48.086;11.632;2023-12-28T07:22:48;0.63;;;0.52;;
22429;SDS011;11382;48.086;11.632;2023-12-28T07:25:19;3.42;;;0.77;;
22429;SDS011;11382;48.086;11.632;2023-12-28T07:27:47;1.25;;;0.70;;
22429;SDS011;11382;48.086;11.632;2023-12-28T07:30:17;1.23;;;0.75;;
22429;SDS011;11382;48.086;11.632;2023-12-28T07:32:47;0.60;;;0.60;;
22429;SDS011;11382;48.086;11.632;2023-12-28T07:35:15;1.02;;;0.80;;
22429;SDS011;11382;48.086;11.632;2023-12-28T07:37:43;0.90;;;0.65;;
22429;SDS011;11382;48.086;11.632;2023-12-28T07:40:12;0.95;;;0.60;;
22429;SDS011;11382;48.086;11.632;2023-12-28T07:42:40;0.95;;;0.70;;
22429;SDS011;11382;48.086;11.632;2023-12-28T07:45:09;1.33;;;0.60;;
22429;SDS011;11382;48.086;11.632;2023-12-28T07:47:37;1.15;;;0.80;;
22429;SDS011;11382;48.086;11.632;2023-12-28T07:50:07;0.63;;;0.63;;
22429;SDS011;11382;48.086;11.632;2023-12-28T07:52:37;1.10;;;0.85;;
22429;SDS011;11382;48.086;11.632;2023-12-28T07:55:05;0.70;;;0.60;;
22429;SDS011;11382;48.086;11.632;2023-12-28T07:57:33;1.90;;;0.80;;
22429;SDS011;11382;48.086;11.632;2023-12-28T08:00:03;1.20;;;0.90;;
22429;SDS011;11382;48.086;11.632;2023-12-28T08:02:33;1.02;;;0.70;;
22429;SDS011;11382;48.086;11.632;2023-12-28T08:05:01;1.17;;;0.88;;
22429;SDS011;11382;48.086;11.632;2023-12-28T08:07:31;2.22;;;1.00;;
22429;SDS011;11382;48.086;11.632;2023-12-28T08:09:59;1.38;;;0.80;;
22429;SDS011;11382;48.086;11.632;2023-12-28T08:12:27;1.27;;;0.95;;
22429;SDS011;11382;48.086;11.632;2023-12-28T08:14:55;3.22;;;0.95;;
22429;SDS011;11382;48.086;11.632;2023-12-28T08:17:23;1.50;;;0.70;;
22429;SDS011;11382;48.086;11.632;2023-12-28T08:19:51;2.38;;;0.82;;
22429;SDS011;11382;48.086;11.632;2023-12-28T08:22:19;1.05;;;0.90;;
22429;SDS011;11382;48.086;11.632;2023-12-28T08:24:49;0.82;;;0.70;;
22429;SDS011;11382;48.086;11.632;2023-12-28T08:27:17;0.73;;;0.73;;
22429;SDS011;11382;48.086;11.632;2023-12-28T08:29:45;3.47;;;0.90;;
22429;SDS011;11382;48.086;11.632;2023-12-28T08:32:13;2.47;;;0.90;;
22429;SDS011;11382;48.086;11.632;2023-12-28T08:34:41;1.38;;;0.82;;
22429;SDS011;11382;48.086;11.632;2023-12-28T08:37:09;2.08;;;1.10;;
22429;SDS011;11382;48.086;11.632;2023-12-28T08:39:39;1.85;;;1.10;;
22429;SDS011;11382;48.086;11.632;2023-12-28T08:42:08;2.45;;;0.90;;
22429;SDS011;11382;48.086;11.632;2023-12-28T08:44:37;1.85;;;1.13;;
22429;SDS011;11382;48.086;11.632;2023-12-28T08:47:05;2.38;;;0.98;;
22429;SDS011;11382;48.086;11.632;2023-12-28T08:49:33;3.47;;;1.30;;
22429;SDS011;11382;48.086;11.632;2023-12-28T08:52:01;5.68;;;1.70;;
22429;SDS011;11382;48.086;11.632;2023-12-28T08:54:30;3.88;;;1.40;;
22429;SDS011;11382;48.086;11.632;2023-12-28T08:56:58;1.63;;;1.02;;
22429;SDS011;11382;48.086;11.632;2023-12-28T08:59:27;2.67;;;0.93;;
22429;SDS011;11382;48.086;11.632;2023-12-28T09:01:55;1.05;;;0.80;;
22429;SDS011;11382;48.086;11.632;2023-12-28T09:04:23;2.17;;;0.98;;
22429;SDS011;11382;48.086;11.632;2023-12-28T09:06:52;2.00;;;0.65;;
22429;SDS011;11382;48.086;11.632;2023-12-28T09:09:21;1.08;;;0.70;;
22429;SDS011;11382;48.086;11.632;2023-12-28T09:11:49;0.93;;;0.82;;
22429;SDS011;11382;48.086;11.632;2023-12-28T09:14:17;0.82;;;0.73;;
22429;SDS011;11382;48.086;11.632;2023-12-28T09:16:46;1.35;;;0.70;;
22429;SDS011;11382;48.086;11.632;2023-12-28T09:19:16;1.60;;;0.90;;
22429;SDS011;11382;48.086;11.632;2023-12-28T09:21:44;1.40;;;0.77;;
22429;SDS011;11382;48.086;11.632;2023-12-28T09:24:12;0.73;;;0.70;;
22429;SDS011;11382;48.086;11.632;2023-12-28T09:26:41;0.88;;;0.55;;
22429;SDS011;11382;48.086;11.632;2023-12-28T09:29:09;0.73;;;0.60;;
22429;SDS011;11382;48.086;11.632;2023-12-28T09:31:37;0.93;;;0.73;;
22429;SDS011;11382;48.086;11.632;2023-12-28T09:34:06;2.10;;;0.80;;
22429;SDS011;11382;48.086;11.632;2023-12-28T09:36:35;0.93;;;0.63;;
22429;SDS011;11382;48.086;11.632;2023-12-28T09:39:03;1.98;;;0.77;;
22429;SDS011;11382;48.086;11.632;2023-12-28T09:41:34;1.02;;;0.75;;
22429;SDS011;11382;48.086;11.632;2023-12-28T09:44:07;0.90;;;0.60;;
22429;SDS011;11382;48.086;11.632;2023-12-28T09:46:40;1.02;;;0.82;;
22429;SDS011;11382;48.086;11.632;2023-12-28T09:49:10;1.20;;;0.77;;
22429;SDS011;11382;48.086;11.632;2023-12-28T09:51:38;1.13;;;0.80;;
22429;SDS011;11382;48.086;11.632;2023-12-28T09:54:07;1.25;;;0.80;;
22429;SDS011;11382;48.086;11.632;2023-12-28T09:56:35;0.90;;;0.63;;
22429;SDS011;11382;48.086;11.632;2023-12-28T09:59:03;0.80;;;0.70;;
22429;SDS011;11382;48.086;11.632;2023-12-28T10:01:33;0.70;;;0.52;;
22429;SDS011;11382;48.086;11.632;2023-12-28T10:04:02;1.10;;;0.75;;
22429;SDS011;11382;48.086;11.632;2023-12-28T10:06:32;1.88;;;0.82;;
22429;SDS011;11382;48.086;11.632;2023-12-28T10:09:00;1.45;;;0.70;;
22429;SDS011;11382;48.086;11.632;2023-12-28T10:11:29;1.77;;;0.70;;
22429;SDS011;11382;48.086;11.632;2023-12-28T10:13:58;1.88;;;0.95;;
22429;SDS011;11382;48.086;11.632;2023-12-28T10:16:26;1.35;;;1.02;;
22429;SDS011;11382;48.086;11.632;2023-12-28T10:18:55;1.00;;;0.73;;
22429;SDS011;11382;48.086;11.632;2023-12-28T10:21:24;1.98;;;0.95;;
22429;SDS011;11382;48.086;11.632;2023-12-28T10:23:53;2.90;;;0.77;;
22429;SDS011;11382;48.086;11.632;2023-12-28T10:26:22;1.55;;;0.73;;
22429;SDS011;11382;48.086;11.632;2023-12-28T10:28:56;1.33;;;0.70;;
22429;SDS011;11382;48.086;11.632;2023-12-28T10:31:25;0.77;;;0.60;;
22429;SDS011;11382;48.086;11.632;2023-12-28T10:33:57;1.05;;;0.60;;
22429;SDS011;11382;48.086;11.632;2023-12-28T10:36:26;0.70;;;0.55;;
22429;SDS011;11382;48.086;11.632;2023-12-28T10:38:56;0.95;;;0.70;;
22429;SDS011;11382;48.086;11.632;2023-12-28T10:41:27;2.08;;;0.90;;
22429;SDS011;11382;48.086;11.632;2023-12-28T10:43:59;0.75;;;0.60;;
22429;SDS011;11382;48.086;11.632;2023-12-28T10:46:36;0.90;;;0.70;;
22429;SDS011;11382;48.086;11.632;2023-12-28T10:49:10;0.75;;;0.63;;
22429;SDS011;11382;48.086;11.632;2023-12-28T10:51:41;1.33;;;0.80;;
22429;SDS011;11382;48.086;11.632;2023-12-28T10:54:18;0.88;;;0.63;;
22429;SDS011;11382;48.086;11.632;2023-12-28T10:56:53;2.45;;;0.80;;
22429;SDS011;11382;48.086;11.632;2023-12-28T10:59:29;1.52;;;1.13;;
22429;SDS011;11382;48.086;11.632;2023-12-28T11:02:06;1.67;;;1.00;;
22429;SDS011;11382;48.086;11.632;2023-12-28T11:04:40;2.90;;;1.02;;
22429;SDS011;11382;48.086;11.632;2023-12-28T11:07:10;1.70;;;0.80;;
22429;SDS011;11382;48.086;11.632;2023-12-28T11:09:42;1.17;;;0.70;;
22429;SDS011;11382;48.086;11.632;2023-12-28T11:12:11;1.25;;;0.65;;
22429;SDS011;11382;48.086;11.632;2023-12-28T11:14:39;1.38;;;0.80;;
22429;SDS011;11382;48.086;11.632;2023-12-28T11:17:09;3.40;;;0.80;;
22429;SDS011;11382;48.086;11.632;2023-12-28T11:19:38;1.13;;;0.77;;
22429;SDS011;11382;48.086;11.632;2023-12-28T11:22:06;2.17;;;0.82;;
22429;SDS011;11382;48.086;11.632;2023-12-28T11:24:35;1.80;;;0.65;;
22429;SDS011;11382;48.086;11.632;2023-12-28T11:27:05;1.33;;;0.95;;
22429;SDS011;11382;48.086;11.632;2023-12-28T11:29:36;1.13;;;0.80;;
22429;SDS011;11382;48.086;11.632;2023-12-28T11:32:05;1.77;;;0.63;;
22429;SDS011;11382;48.086;11.632;2023-12-28T11:34:35;1.00;;;0.90;;
22429;SDS011;11382;48.086;11.632;2023-12-28T11:37:04;1.05;;;0.90;;
22429;SDS011;11382;48.086;11.632;2023-12-28T11:39:35;0.50;;;0.50;;
22429;SDS011;11382;48.086;11.632;2023-12-28T11:42:07;1.05;;;0.73;;
22429;SDS011;11382;48.086;11.632;2023-12-28T11:44:39;1.48;;;0.93;;
22429;SDS011;11382;48.086;11.632;2023-12-28T11:47:11;1.35;;;0.90;;
22429;SDS011;11382;48.086;11.632;2023-12-28T11:49:39;1.95;;;0.80;;
22429;SDS011;11382;48.086;11.632;2023-12-28T11:52:08;1.35;;;0.82;;
22429;SDS011;11382;48.086;11.632;2023-12-28T11:54:37;1.00;;;0.80;;
22429;SDS011;11382;48.086;11.632;2023-12-28T11:57:17;1.30;;;0.98;;
22429;SDS011;11382;48.086;11.632;2023-12-28T11:59:45;2.95;;;1.17;;
22429;SDS011;11382;48.086;11.632;2023-12-28T12:02:15;4.32;;;2.30;;
22429;SDS011;11382;48.086;11.632;2023-12-28T12:04:43;2.28;;;1.42;;
22429;SDS011;11382;48.086;11.632;2023-12-28T12:07:11;3.40;;;1.95;;
22429;SDS011;11382;48.086;11.632;2023-12-28T12:09:39;2.67;;;1.90;;
22429;SDS011;11382;48.086;11.632;2023-12-28T12:12:08;3.22;;;1.88;;
22429;SDS011;11382;48.086;11.632;2023-12-28T12:14:37;1.30;;;1.20;;
22429;SDS011;11382;48.086;11.632;2023-12-28T12:17:05;1.13;;;0.90;;
22429;SDS011;11382;48.086;11.632;2023-12-28T12:19:33;1.05;;;0.90;;
22429;SDS011;11382;48.086;11.632;2023-12-28T12:22:02;1.48;;;0.90;;
22429;SDS011;11382;48.086;11.632;2023-12-28T12:24:30;1.73;;;0.90;;
22429;SDS011;11382;48.086;11.632;2023-12-28T12:27:00;0.90;;;0.73;;
22429;SDS011;11382;48.086;11.632;2023-12-28T12:29:29;1.30;;;1.00;;
22429;SDS011;11382;48.086;11.632;2023-12-28T12:31:59;1.10;;;0.93;;
22429;SDS011;11382;48.086;11.632;2023-12-28T12:34:29;1.30;;;0.85;;
22429;SDS011;11382;48.086;11.632;2023-12-28T12:36:57;1.30;;;0.80;;
22429;SDS011;11382;48.086;11.632;2023-12-28T12:39:26;1.58;;;1.10;;
22429;SDS011;11382;48.086;11.632;2023-12-28T12:41:54;0.75;;;0.63;;
22429;SDS011;11382;48.086;11.632;2023-12-28T12:44:23;2.83;;;0.90;;
22429;SDS011;11382;48.086;11.632;2023-12-28T12:46:56;0.95;;;0.82;;
22429;SDS011;11382;48.086;11.632;2023-12-28T12:49:26;2.20;;;0.90;;
22429;SDS011;11382;48.086;11.632;2023-12-28T12:51:54;1.27;;;0.95;;
22429;SDS011;11382;48.086;11.632;2023-12-28T12:54:30;1.67;;;0.90;;
22429;SDS011;11382;48.086;11.632;2023-12-28T12:56:58;1.23;;;0.80;;
22429;SDS011;11382;48.086;11.632;2023-12-28T12:59:26;1.35;;;0.88;;
22429;SDS011;11382;48.086;11.632;2023-12-28T13:01:54;1.20;;;0.90;;
22429;SDS011;11382;48.086;11.632;2023-12-28T13:04:23;2.05;;;0.90;;
22429;SDS011;11382;48.086;11.632;2023-12-28T13:06:53;2.33;;;1.00;;
22429;SDS011;11382;48.086;11.632;2023-12-28T13:09:21;3.05;;;1.10;;
22429;SDS011;11382;48.086;11.632;2023-12-28T13:11:49;2.28;;;0.95;;
22429;SDS011;11382;48.086;11.632;2023-12-28T13:14:19;1.50;;;1.13;;
22429;SDS011;11382;48.086;11.632;2023-12-28T13:16:47;3.63;;;1.10;;
22429;SDS011;11382;48.086;11.632;2023-12-28T13:19:24;1.05;;;0.90;;
22429;SDS011;11382;48.086;11.632;2023-12-28T13:21:53;1.83;;;1.02;;
22429;SDS011;11382;48.086;11.632;2023-12-28T13:24:21;1.95;;;1.15;;
22429;SDS011;11382;48.086;11.632;2023-12-28T13:26:49;1.52;;;1.10;;
22429;SDS011;11382;48.086;11.632;2023-12-28T13:29:18;3.47;;;1.20;;
22429;SDS011;11382;48.086;11.632;2023-12-28T13:31:45;1.88;;;1.10;;
22429;SDS011;11382;48.086;11.632;2023-12-28T13:34:16;2.97;;;1.20;;
22429;SDS011;11382;48.086;11.632;2023-12-28T13:36:45;1.15;;;0.85;;
22429;SDS011;11382;48.086;11.632;2023-12-28T13:39:15;3.50;;;1.10;;
22429;SDS011;11382;48.086;11.632;2023-12-28T13:41:44;1.33;;;0.90;;
22429;SDS011;11382;48.086;11.632;2023-12-28T13:44:12;1.60;;;1.08;;
22429;SDS011;11382;48.086;11.632;2023-12-28T13:46:40;1.80;;;1.25;;
22429;SDS011;11382;48.086;11.632;2023-12-28T13:49:08;1.58;;;1.10;;
22429;SDS011;11382;48.086;11.632;2023-12-28T13:51:36;1.67;;;0.90;;
22429;SDS011;11382;48.086;11.632;2023-12-28T13:54:04;2.47;;;1.10;;
22429;SDS011;11382;48.086;11.632;2023-12-28T13:56:34;1.95;;;1.10;;
22429;SDS011;11382;48.086;11.632;2023-12-28T13:59:02;1.85;;;1.15;;
22429;SDS011;11382;48.086;11.632;2023-12-28T14:01:30;2.05;;;1.17;;
22429;SDS011;11382;48.086;11.632;2023-12-28T14:03:58;2.90;;;1.10;;
22429;SDS011;11382;48.086;11.632;2023-12-28T14:06:26;1.45;;;1.10;;
22429;SDS011;11382;48.086;11.632;2023-12-28T14:08:55;2.08;;;0.90;;
22429;SDS011;11382;48.086;11.632;2023-12-28T14:11:23;0.93;;;0.70;;
22429;SDS011;11382;48.086;11.632;2023-12-28T14:13:53;1.13;;;0.80;;
22429;SDS011;11382;48.086;11.632;2023-12-28T14:16:21;1.10;;;0.93;;
22429;SDS011;11382;48.086;11.632;2023-12-28T14:18:49;0.93;;;0.85;;
22429;SDS011;11382;48.086;11.632;2023-12-28T14:21:19;0.73;;;0.70;;
22429;SDS011;11382;48.086;11.632;2023-12-28T14:23:48;2.10;;;1.40;;
22429;SDS011;11382;48.086;11.632;2023-12-28T14:26:18;1.65;;;1.23;;
22429;SDS011;11382;48.086;11.632;2023-12-28T14:28:48;1.65;;;1.20;;
22429;SDS011;11382;48.086;11.632;2023-12-28T14:31:17;1.45;;;1.00;;
22429;SDS011;11382;48.086;11.632;2023-12-28T14:33:47;1.60;;;0.98;;
22429;SDS011;11382;48.086;11.632;2023-12-28T14:36:18;1.92;;;1.15;;
22429;SDS011;11382;48.086;11.632;2023-12-28T14:38:50;1.23;;;1.02;;
22429;SDS011;11382;48.086;11.632;2023-12-28T14:41:19;2.45;;;1.20;;
22429;SDS011;11382;48.086;11.632;2023-12-28T14:43:49;1.40;;;1.30;;
22429;SDS011;11382;48.086;11.632;2023-12-28T14:46:18;1.88;;;1.08;;